createdAt,value
2023-08-22T00:00:05.311Z,9.80
2023-08-22T00:01:15.182Z,10.28
2023-08-22T00:02:17.948Z,10.58
2023-08-22T00:03:20.799Z,9.95
2023-08-22T00:04:23.739Z,10.58
2023-08-22T00:05:26.917Z,10.37
2023-08-22T00:06:29.939Z,10.28
2023-08-22T00:07:32.686Z,10.53
2023-08-22T00:08:35.399Z,9.85
2023-08-22T00:09:38.107Z,10.20
2023-08-22T00:10:41.558Z,9.87
2023-08-22T00:11:44.633Z,10.10
2023-08-22T00:12:47.354Z,10.73
2023-08-22T00:13:50.061Z,10.33
2023-08-22T00:14:52.770Z,10.52
2023-08-22T00:16:00.501Z,10.13
2023-08-22T00:17:03.738Z,10.10
2023-08-22T00:18:06.613Z,9.65
2023-08-22T00:19:09.355Z,10.13
2023-08-22T00:20:13.419Z,10.30
2023-08-22T00:21:16.182Z,10.45
2023-08-22T00:22:18.895Z,10.02
2023-08-22T00:23:21.623Z,10.50
2023-08-22T00:24:25.126Z,9.98
2023-08-22T00:25:27.821Z,10.83
2023-08-22T00:26:30.562Z,10.42
2023-08-22T00:27:34.390Z,9.75
2023-08-22T00:28:37.219Z,10.72
2023-08-22T00:29:39.932Z,10.00
2023-08-22T00:30:42.733Z,9.37
2023-08-22T00:31:45.484Z,10.40
2023-08-22T00:32:48.280Z,10.10
2023-08-22T00:33:51.064Z,10.37
2023-08-22T00:34:53.786Z,9.70
2023-08-22T00:35:56.554Z,9.87
2023-08-22T00:37:00.280Z,10.40
2023-08-22T00:38:02.971Z,10.17
2023-08-22T00:39:05.709Z,9.37
2023-08-22T00:40:08.867Z,9.68
2023-08-22T00:41:11.625Z,10.18
2023-08-22T00:42:14.396Z,9.73
2023-08-22T00:43:17.098Z,10.45
2023-08-22T00:44:20.358Z,10.25
2023-08-22T00:45:23.098Z,10.03
2023-08-22T00:46:28.386Z,9.83
2023-08-22T00:47:31.274Z,10.22
2023-08-22T00:48:34.171Z,9.43
2023-08-22T00:49:37.472Z,10.22
2023-08-22T00:50:40.383Z,9.67
2023-08-22T00:51:44.157Z,10.17
2023-08-22T00:52:48.397Z,10.83
2023-08-22T00:53:51.158Z,10.42
2023-08-22T00:54:53.868Z,9.85
2023-08-22T00:55:58.032Z,9.47
2023-08-22T00:57:00.882Z,9.50
2023-08-22T00:58:03.738Z,9.18
2023-08-22T00:59:07.102Z,9.73
2023-08-22T01:00:11.709Z,10.17
2023-08-22T01:01:15.923Z,10.15
2023-08-22T01:02:18.794Z,9.90
2023-08-22T01:03:21.648Z,9.77
2023-08-22T01:04:24.407Z,10.97
2023-08-22T01:05:31.119Z,10.75
2023-08-22T01:06:48.170Z,10.05
2023-08-22T01:08:04.744Z,9.77
2023-08-22T01:09:16.925Z,10.23
2023-08-22T01:10:34.003Z,10.25
2023-08-22T01:11:42.769Z,9.63
2023-08-22T01:12:48.595Z,9.82
2023-08-22T01:13:55.880Z,9.85
2023-08-22T01:15:26.331Z,9.73
2023-08-22T01:16:29.741Z,9.93
2023-08-22T01:17:33.605Z,10.33
2023-08-22T01:18:37.459Z,10.47
2023-08-22T01:19:40.605Z,9.80
2023-08-22T01:20:43.291Z,9.95
2023-08-22T01:21:52.968Z,9.57
2023-08-22T01:22:58.146Z,9.38
2023-08-22T01:24:01.101Z,10.08
2023-08-22T01:25:04.063Z,9.95
2023-08-22T01:26:08.396Z,9.73
2023-08-22T01:27:15.501Z,9.62
2023-08-22T01:28:30.694Z,9.68
2023-08-22T01:29:42.885Z,9.90
2023-08-22T01:31:02.137Z,9.75
2023-08-22T01:32:23.752Z,10.15
2023-08-22T01:33:45.276Z,9.63
2023-08-22T01:34:54.089Z,9.72
2023-08-22T01:35:57.162Z,9.98
2023-08-22T01:37:01.245Z,9.73
2023-08-22T01:38:04.910Z,9.20
2023-08-22T01:39:09.649Z,9.77
2023-08-22T01:40:14.253Z,9.53
2023-08-22T01:41:18.627Z,9.68
2023-08-22T01:42:21.345Z,10.00
2023-08-22T01:43:24.071Z,9.67
2023-08-22T01:44:29.309Z,9.70
2023-08-22T01:45:32.013Z,9.95
2023-08-22T01:46:34.714Z,9.73
2023-08-22T01:47:37.499Z,10.18
2023-08-22T01:48:40.297Z,10.37
2023-08-22T01:49:44.246Z,9.93
2023-08-22T01:50:46.946Z,9.70
2023-08-22T01:51:49.695Z,9.27
2023-08-22T01:52:52.408Z,9.53
2023-08-22T01:53:55.228Z,9.70
2023-08-22T01:54:59.271Z,10.15
2023-08-22T01:56:02.368Z,10.07
2023-08-22T01:57:05.121Z,9.17
2023-08-22T01:58:12.305Z,9.33
2023-08-22T01:59:15.291Z,9.62
2023-08-22T02:00:19.441Z,9.57
2023-08-22T02:01:23.533Z,10.28
2023-08-22T02:02:26.477Z,9.82
2023-08-22T02:03:29.311Z,9.87
2023-08-22T02:04:32.074Z,9.58
2023-08-22T02:05:34.774Z,9.25
2023-08-22T02:06:38.985Z,8.97
2023-08-22T02:07:42.637Z,9.52
2023-08-22T02:08:45.577Z,9.78
2023-08-22T02:09:48.271Z,9.17
2023-08-22T02:10:51.357Z,9.97
2023-08-22T02:11:54.092Z,8.83
2023-08-22T02:12:57.243Z,9.33
2023-08-22T02:14:00.585Z,9.80
2023-08-22T02:15:04.246Z,9.15
2023-08-22T02:16:07.010Z,9.22
2023-08-22T02:17:09.876Z,10.00
2023-08-22T02:18:12.643Z,9.57
2023-08-22T02:19:17.753Z,9.35
2023-08-22T02:20:20.726Z,9.33
2023-08-22T02:21:23.542Z,9.58
2023-08-22T02:22:26.271Z,9.43
2023-08-22T02:23:29.104Z,9.83
2023-08-22T02:24:31.838Z,9.10
2023-08-22T02:25:34.571Z,9.20
2023-08-22T02:26:38.433Z,9.62
2023-08-22T02:27:41.392Z,9.47
2023-08-22T02:28:44.333Z,9.72
2023-08-22T02:29:47.032Z,9.83
2023-08-22T02:30:55.998Z,9.25
2023-08-22T02:31:58.734Z,9.32
2023-08-22T02:33:01.730Z,9.58
2023-08-22T02:34:05.948Z,10.03
2023-08-22T02:35:09.325Z,10.03
2023-08-22T02:36:12.978Z,9.77
2023-08-22T02:37:16.152Z,9.57
2023-08-22T02:38:18.975Z,9.87
2023-08-22T02:39:21.761Z,10.15
2023-08-22T02:40:24.495Z,9.97
2023-08-22T02:41:27.323Z,10.28
2023-08-22T02:42:30.060Z,10.58
2023-08-22T02:43:32.812Z,9.98
2023-08-22T02:44:35.900Z,9.90
2023-08-22T02:45:38.609Z,9.63
2023-08-22T02:46:41.897Z,10.07
2023-08-22T02:47:44.878Z,9.75
2023-08-22T02:48:47.736Z,9.67
2023-08-22T02:49:50.531Z,9.37
2023-08-22T02:50:53.644Z,9.63
2023-08-22T02:51:56.465Z,9.88
2023-08-22T02:52:59.182Z,9.82
2023-08-22T02:54:01.891Z,9.83
2023-08-22T02:55:05.234Z,10.13
2023-08-22T02:56:08.069Z,10.03
2023-08-22T02:57:10.779Z,10.32
2023-08-22T02:58:13.506Z,9.85
2023-08-22T02:59:17.783Z,9.15
2023-08-22T03:00:20.517Z,9.68
2023-08-22T03:01:23.456Z,9.73
2023-08-22T03:02:26.206Z,9.83
2023-08-22T03:03:29.987Z,10.12
2023-08-22T03:04:34.434Z,10.38
2023-08-22T03:05:37.447Z,10.00
2023-08-22T03:06:40.566Z,9.57
2023-08-22T03:07:43.762Z,10.25
2023-08-22T03:08:49.074Z,10.00
2023-08-22T03:09:52.033Z,9.42
2023-08-22T03:11:01.009Z,9.50
2023-08-22T03:12:04.542Z,9.90
2023-08-22T03:13:07.754Z,10.13
2023-08-22T03:14:10.676Z,9.58
2023-08-22T03:15:13.373Z,9.42
2023-08-22T03:16:17.818Z,9.57
2023-08-22T03:17:21.968Z,9.55
2023-08-22T03:18:26.695Z,9.98
2023-08-22T03:19:29.382Z,9.27
2023-08-22T03:20:37.220Z,9.37
2023-08-22T03:21:40.281Z,9.98
2023-08-22T03:22:43.250Z,9.30
2023-08-22T03:23:45.993Z,10.25
2023-08-22T03:24:51.798Z,10.18
2023-08-22T03:26:00.861Z,9.90
2023-08-22T03:27:04.693Z,9.83
2023-08-22T03:28:08.052Z,9.60
2023-08-22T03:29:10.785Z,9.90
2023-08-22T03:30:13.541Z,9.87
2023-08-22T03:31:16.588Z,10.27
2023-08-22T03:32:19.406Z,10.60
2023-08-22T03:33:22.821Z,10.05
2023-08-22T03:34:25.915Z,10.10
2023-08-22T03:35:28.696Z,9.85
2023-08-22T03:36:32.922Z,9.43
2023-08-22T03:37:42.412Z,9.60
2023-08-22T03:38:45.397Z,9.57
2023-08-22T03:39:48.117Z,8.47
2023-08-22T03:40:52.282Z,9.78
2023-08-22T03:41:54.975Z,9.93
2023-08-22T03:42:57.680Z,10.17
2023-08-22T03:44:00.405Z,10.02
2023-08-22T03:45:04.204Z,9.70
2023-08-22T03:46:07.551Z,9.67
2023-08-22T03:47:10.326Z,9.57
2023-08-22T03:48:17.459Z,10.17
2023-08-22T03:49:20.286Z,9.20
2023-08-22T03:50:22.994Z,10.18
2023-08-22T03:51:26.380Z,9.58
2023-08-22T03:52:29.245Z,9.12
2023-08-22T03:53:31.975Z,9.75
2023-08-22T03:54:34.712Z,10.67
2023-08-22T03:55:38.804Z,9.80
2023-08-22T03:56:41.553Z,9.42
2023-08-22T03:57:44.306Z,9.67
2023-08-22T03:58:48.157Z,9.58
2023-08-22T03:59:52.625Z,9.73
2023-08-22T04:00:56.231Z,9.53
2023-08-22T04:01:58.979Z,9.52
2023-08-22T04:03:01.850Z,10.03
2023-08-22T04:04:04.688Z,10.22
2023-08-22T04:05:07.523Z,10.32
2023-08-22T04:06:10.559Z,10.43
2023-08-22T04:07:13.854Z,10.30
2023-08-22T04:08:17.239Z,10.23
2023-08-22T04:09:19.999Z,9.93
2023-08-22T04:10:23.804Z,10.08
2023-08-22T04:11:26.546Z,9.98
2023-08-22T04:12:29.345Z,9.90
2023-08-22T04:13:32.207Z,9.20
2023-08-22T04:14:34.922Z,9.02
2023-08-22T04:15:40.614Z,9.28
2023-08-22T04:16:43.871Z,9.40
2023-08-22T04:17:49.843Z,10.08
2023-08-22T04:18:53.947Z,9.88
2023-08-22T04:19:56.701Z,9.47
2023-08-22T04:20:59.417Z,10.00
2023-08-22T04:22:02.281Z,9.73
2023-08-22T04:23:05.101Z,9.63
2023-08-22T04:24:10.691Z,10.48
2023-08-22T04:25:14.117Z,9.60
2023-08-22T04:26:17.267Z,9.35
2023-08-22T04:27:20.606Z,10.38
2023-08-22T04:28:23.926Z,9.92
2023-08-22T04:29:27.043Z,9.75
2023-08-22T04:30:29.767Z,10.07
2023-08-22T04:31:32.509Z,9.90
2023-08-22T04:32:35.255Z,10.78
2023-08-22T04:33:39.415Z,10.60
2023-08-22T04:34:42.151Z,9.87
2023-08-22T04:35:44.946Z,10.02
2023-08-22T04:36:47.749Z,10.03
2023-08-22T04:37:52.087Z,10.02
2023-08-22T04:38:54.880Z,10.22
2023-08-22T04:39:59.073Z,10.20
2023-08-22T04:41:19.006Z,9.87
2023-08-22T04:42:32.482Z,9.83
2023-08-22T04:43:40.504Z,9.85
2023-08-22T04:44:43.210Z,10.40
2023-08-22T04:45:46.004Z,10.47
2023-08-22T04:46:49.436Z,9.98
2023-08-22T04:47:52.169Z,10.08
2023-08-22T04:48:54.901Z,10.12
2023-08-22T04:49:57.631Z,10.13
2023-08-22T04:51:00.628Z,9.95
2023-08-22T04:52:03.598Z,9.95
2023-08-22T04:53:06.315Z,9.73
2023-08-22T04:54:09.094Z,10.08
2023-08-22T04:55:11.840Z,10.00
2023-08-22T04:56:15.876Z,9.78
2023-08-22T04:57:21.675Z,9.63
2023-08-22T04:58:24.402Z,10.67
2023-08-22T04:59:28.768Z,10.18
2023-08-22T05:00:32.439Z,10.30
2023-08-22T05:01:35.811Z,12.25
2023-08-22T05:02:38.977Z,13.37
2023-08-22T05:03:41.770Z,13.63
2023-08-22T05:04:44.485Z,13.97
2023-08-22T05:05:47.262Z,13.25
2023-08-22T05:06:50.031Z,13.75
2023-08-22T05:07:52.725Z,13.38
2023-08-22T05:08:55.499Z,13.83
2023-08-22T05:09:58.229Z,14.17
2023-08-22T05:11:01.002Z,14.17
2023-08-22T05:12:04.338Z,14.03
2023-08-22T05:13:07.210Z,13.70
2023-08-22T05:14:10.565Z,14.12
2023-08-22T05:15:13.283Z,14.63
2023-08-22T05:16:16.676Z,13.83
2023-08-22T05:17:20.287Z,13.47
2023-08-22T05:18:23.954Z,13.55
2023-08-22T05:19:27.058Z,13.47
2023-08-22T05:20:29.799Z,13.75
2023-08-22T05:21:32.790Z,13.93
2023-08-22T05:22:41.456Z,14.03
2023-08-22T05:23:46.506Z,14.75
2023-08-22T05:24:50.355Z,14.58
2023-08-22T05:25:53.047Z,14.13
2023-08-22T05:26:55.790Z,14.22
2023-08-22T05:27:58.490Z,14.75
2023-08-22T05:29:01.223Z,14.10
2023-08-22T05:30:07.630Z,14.43
2023-08-22T05:31:10.395Z,14.60
2023-08-22T05:32:14.436Z,14.52
2023-08-22T05:33:17.189Z,14.03
2023-08-22T05:34:19.914Z,14.55
2023-08-22T05:35:22.737Z,14.10
2023-08-22T05:36:25.735Z,14.42
2023-08-22T05:37:28.613Z,14.88
2023-08-22T05:38:37.348Z,14.43
2023-08-22T05:39:43.447Z,14.57
2023-08-22T05:40:46.257Z,15.13
2023-08-22T05:41:49.014Z,14.72
2023-08-22T05:42:53.860Z,13.93
2023-08-22T05:43:57.401Z,14.65
2023-08-22T05:45:00.117Z,14.18
2023-08-22T05:46:03.998Z,14.50
2023-08-22T05:47:07.408Z,15.05
2023-08-22T05:48:10.661Z,14.78
2023-08-22T05:49:13.913Z,14.52
2023-08-22T05:50:23.330Z,14.92
2023-08-22T05:51:26.564Z,14.20
2023-08-22T05:52:32.509Z,14.23
2023-08-22T05:53:54.308Z,15.37
2023-08-22T05:54:57.354Z,14.57
2023-08-22T05:56:00.289Z,13.90
2023-08-22T05:57:03.591Z,13.98
2023-08-22T05:58:06.468Z,15.02
2023-08-22T05:59:09.963Z,14.27
2023-08-22T06:00:16.669Z,13.98
2023-08-22T06:01:28.838Z,13.92
2023-08-22T06:02:33.306Z,13.83
2023-08-22T06:03:40.912Z,14.73
2023-08-22T06:04:46.579Z,15.53
2023-08-22T06:05:50.109Z,14.47
2023-08-22T06:06:54.228Z,15.03
2023-08-22T06:07:56.950Z,14.27
2023-08-22T06:08:59.756Z,15.12
2023-08-22T06:10:02.621Z,14.22
2023-08-22T06:11:05.366Z,14.57
2023-08-22T06:12:10.582Z,13.67
2023-08-22T06:13:15.074Z,14.58
2023-08-22T06:14:17.962Z,19.22
2023-08-22T06:15:20.690Z,25.32
2023-08-22T06:16:24.371Z,18.28
2023-08-22T06:17:27.580Z,23.13
2023-08-22T06:18:30.351Z,25.62
2023-08-22T06:19:33.081Z,27.22
2023-08-22T06:20:40.074Z,23.55
2023-08-22T06:21:42.921Z,19.58
2023-08-22T06:22:45.655Z,17.12
2023-08-22T06:23:48.903Z,15.65
2023-08-22T06:24:52.635Z,15.27
2023-08-22T06:25:55.379Z,15.95
2023-08-22T06:26:58.124Z,15.68
2023-08-22T06:28:00.888Z,15.60
2023-08-22T06:29:03.675Z,15.72
2023-08-22T06:30:07.108Z,16.57
2023-08-22T06:31:11.810Z,16.03
2023-08-22T06:32:16.544Z,15.30
2023-08-22T06:33:20.113Z,15.47
2023-08-22T06:34:23.952Z,15.35
2023-08-22T06:35:26.710Z,15.05
2023-08-22T06:36:29.458Z,15.45
2023-08-22T06:37:32.704Z,15.37
2023-08-22T06:38:35.444Z,15.57
2023-08-22T06:39:39.388Z,15.97
2023-08-22T06:40:42.217Z,16.37
2023-08-22T06:41:44.941Z,15.52
2023-08-22T06:42:48.449Z,16.72
2023-08-22T06:43:55.169Z,16.05
2023-08-22T06:44:58.424Z,17.77
2023-08-22T06:46:01.730Z,19.97
2023-08-22T06:47:04.505Z,24.75
2023-08-22T06:48:07.441Z,24.83
2023-08-22T06:49:10.292Z,23.48
2023-08-22T06:50:13.697Z,21.93
2023-08-22T06:51:16.478Z,22.10
2023-08-22T06:52:19.733Z,19.90
2023-08-22T06:53:22.473Z,19.28
2023-08-22T06:54:25.182Z,19.38
2023-08-22T06:55:27.896Z,19.88
2023-08-22T06:56:30.634Z,20.00
2023-08-22T06:57:36.034Z,19.03
2023-08-22T06:58:39.568Z,19.52
2023-08-22T06:59:42.304Z,19.83
2023-08-22T07:00:45.035Z,20.17
2023-08-22T07:01:47.756Z,19.97
2023-08-22T07:02:50.720Z,19.52
2023-08-22T07:04:02.309Z,19.62
2023-08-22T07:05:15.986Z,19.15
2023-08-22T07:06:18.813Z,20.20
2023-08-22T07:07:21.515Z,20.05
2023-08-22T07:08:24.214Z,18.67
2023-08-22T07:09:27.174Z,19.05
2023-08-22T07:10:30.124Z,18.22
2023-08-22T07:11:32.862Z,18.18
2023-08-22T07:12:37.079Z,18.73
2023-08-22T07:13:39.776Z,18.27
2023-08-22T07:14:43.401Z,18.68
2023-08-22T07:15:46.144Z,18.27
2023-08-22T07:16:49.016Z,18.58
2023-08-22T07:17:52.887Z,18.63
2023-08-22T07:18:55.645Z,17.50
2023-08-22T07:19:58.355Z,18.18
2023-08-22T07:21:05.307Z,18.48
2023-08-22T07:22:08.044Z,18.53
2023-08-22T07:23:10.761Z,18.28
2023-08-22T07:24:13.486Z,17.93
2023-08-22T07:25:16.833Z,17.95
2023-08-22T07:26:19.578Z,19.07
2023-08-22T07:27:22.997Z,19.80
2023-08-22T07:28:26.036Z,18.65
2023-08-22T07:29:28.791Z,18.93
2023-08-22T07:30:33.815Z,19.10
2023-08-22T07:31:36.571Z,19.87
2023-08-22T07:33:42.014Z,19.18
2023-08-22T07:34:44.761Z,19.25
2023-08-22T07:35:47.901Z,18.87
2023-08-22T07:36:50.642Z,17.65
2023-08-22T07:37:53.375Z,17.78
2023-08-22T07:38:57.789Z,18.25
2023-08-22T07:40:00.515Z,18.55
2023-08-22T07:41:03.217Z,18.48
2023-08-22T07:42:06.068Z,19.12
2023-08-22T07:43:09.071Z,18.47
2023-08-22T07:44:12.040Z,17.00
2023-08-22T07:45:15.091Z,18.00
2023-08-22T07:46:21.113Z,18.30
2023-08-22T07:47:24.171Z,18.00
2023-08-22T07:48:26.981Z,17.23
2023-08-22T07:49:29.728Z,17.38
2023-08-22T07:50:32.475Z,18.02
2023-08-22T07:51:37.038Z,17.67
2023-08-22T07:52:39.785Z,16.78
2023-08-22T07:53:42.569Z,16.68
2023-08-22T07:54:45.290Z,16.28
2023-08-22T07:55:48.701Z,16.98
2023-08-22T07:56:58.944Z,17.57
2023-08-22T07:58:07.665Z,16.48
2023-08-22T07:59:11.019Z,15.72
2023-08-22T08:00:14.494Z,15.88
2023-08-22T08:01:19.386Z,16.30
2023-08-22T08:02:22.164Z,15.00
2023-08-22T08:03:25.016Z,16.33
2023-08-22T08:04:27.871Z,15.72
2023-08-22T08:05:30.721Z,15.38
2023-08-22T08:06:34.865Z,13.53
2023-08-22T08:07:37.597Z,15.18
2023-08-22T08:08:40.344Z,15.17
2023-08-22T08:09:43.132Z,15.57
2023-08-22T08:10:45.898Z,17.02
2023-08-22T08:11:48.628Z,15.97
2023-08-22T08:12:51.527Z,16.82
2023-08-22T08:13:54.291Z,16.93
2023-08-22T08:14:57.199Z,15.92
2023-08-22T08:16:07.181Z,15.38
2023-08-22T08:17:10.636Z,15.37
2023-08-22T08:18:14.824Z,15.93
2023-08-22T08:19:17.605Z,16.70
2023-08-22T08:20:20.386Z,15.75
2023-08-22T08:21:23.114Z,15.50
2023-08-22T08:22:25.843Z,15.05
2023-08-22T08:23:28.837Z,15.70
2023-08-22T08:24:31.575Z,15.23
2023-08-22T08:25:34.271Z,16.10
2023-08-22T08:26:36.977Z,16.07
2023-08-22T08:27:40.410Z,15.58
2023-08-22T08:28:43.159Z,15.20
2023-08-22T08:29:45.881Z,14.85
2023-08-22T08:30:48.632Z,14.98
2023-08-22T08:31:51.437Z,15.58
2023-08-22T08:32:55.081Z,15.62
2023-08-22T08:33:58.019Z,14.30
2023-08-22T08:35:00.741Z,14.93
2023-08-22T08:36:05.176Z,14.13
2023-08-22T08:37:07.954Z,14.78
2023-08-22T08:38:10.712Z,14.42
2023-08-22T08:39:13.463Z,14.90
2023-08-22T08:40:16.198Z,14.70
2023-08-22T08:41:22.150Z,13.95
2023-08-22T08:42:25.682Z,14.28
2023-08-22T08:43:36.063Z,14.72
2023-08-22T08:44:39.621Z,14.80
2023-08-22T08:45:42.387Z,14.78
2023-08-22T08:46:45.208Z,14.97
2023-08-22T08:47:48.650Z,14.82
2023-08-22T08:48:51.640Z,14.12
2023-08-22T08:49:55.546Z,14.37
2023-08-22T08:51:03.660Z,14.90
2023-08-22T08:52:09.484Z,14.52
2023-08-22T08:53:12.693Z,15.20
2023-08-22T08:54:16.413Z,14.80
2023-08-22T08:55:19.291Z,14.18
2023-08-22T08:56:24.457Z,14.53
2023-08-22T08:57:30.630Z,14.38
2023-08-22T08:58:33.400Z,13.87
2023-08-22T08:59:36.429Z,14.48
2023-08-22T09:00:39.168Z,14.82
2023-08-22T09:01:46.304Z,14.20
2023-08-22T09:02:49.285Z,14.45
2023-08-22T09:03:52.634Z,14.27
2023-08-22T09:04:55.812Z,13.60
2023-08-22T09:05:58.543Z,14.70
2023-08-22T09:07:02.212Z,14.00
2023-08-22T09:08:21.207Z,13.82
2023-08-22T09:09:25.737Z,14.58
2023-08-22T09:10:36.343Z,14.63
2023-08-22T09:11:50.795Z,14.20
2023-08-22T09:12:53.557Z,13.93
2023-08-22T09:13:57.401Z,13.92
2023-08-22T09:15:00.393Z,14.70
2023-08-22T09:16:03.875Z,13.82
2023-08-22T09:17:06.702Z,14.88
2023-08-22T09:18:14.967Z,14.38
2023-08-22T09:19:18.113Z,14.68
2023-08-22T09:20:20.908Z,14.75
2023-08-22T09:21:23.647Z,14.45
2023-08-22T09:22:33.209Z,14.92
2023-08-22T09:23:36.039Z,15.68
2023-08-22T09:24:39.102Z,15.52
2023-08-22T09:25:42.009Z,14.78
2023-08-22T09:26:50.272Z,14.62
2023-08-22T09:27:53.019Z,15.15
2023-08-22T09:28:55.779Z,14.50
2023-08-22T09:30:05.500Z,14.90
2023-08-22T09:31:08.472Z,14.90
2023-08-22T09:32:11.208Z,14.65
2023-08-22T09:33:13.916Z,14.62
2023-08-22T09:34:16.687Z,14.85
2023-08-22T09:35:19.659Z,14.78
2023-08-22T09:36:22.842Z,14.60
2023-08-22T09:37:38.018Z,14.73
2023-08-22T09:38:57.913Z,14.67
2023-08-22T09:40:01.576Z,14.10
2023-08-22T09:41:04.343Z,14.58
2023-08-22T09:42:09.818Z,13.00
2023-08-22T09:43:12.866Z,13.52
2023-08-22T09:44:16.550Z,13.78
2023-08-22T09:45:21.033Z,14.78
2023-08-22T09:46:25.489Z,13.40
2023-08-22T09:47:31.641Z,13.78
2023-08-22T09:48:39.983Z,14.18
2023-08-22T09:49:45.378Z,13.43
2023-08-22T09:50:52.461Z,13.32
2023-08-22T09:51:55.168Z,14.17
2023-08-22T09:53:01.048Z,14.12
2023-08-22T09:54:08.181Z,13.68
2023-08-22T09:55:12.443Z,13.45
2023-08-22T09:56:15.770Z,14.25
2023-08-22T09:57:19.514Z,13.38
2023-08-22T09:58:23.351Z,13.80
2023-08-22T09:59:27.343Z,13.80
2023-08-22T10:00:31.937Z,13.22
2023-08-22T10:01:40.014Z,13.30
2023-08-22T10:02:44.354Z,13.33
2023-08-22T10:03:49.224Z,13.83
2023-08-22T10:04:52.819Z,13.60
2023-08-22T10:05:55.602Z,14.57
2023-08-22T10:06:58.561Z,12.77
2023-08-22T10:08:01.286Z,13.95
2023-08-22T10:09:10.201Z,12.95
2023-08-22T10:10:12.952Z,14.00
2023-08-22T10:11:19.233Z,13.50
2023-08-22T10:12:22.944Z,13.00
2023-08-22T10:13:26.082Z,12.75
2023-08-22T10:14:35.052Z,13.27
2023-08-22T10:15:38.140Z,13.22
2023-08-22T10:16:41.166Z,13.72
2023-08-22T10:17:45.646Z,13.28
2023-08-22T10:18:49.079Z,13.55
2023-08-22T10:19:51.796Z,13.53
2023-08-22T10:20:55.814Z,13.20
2023-08-22T10:22:12.785Z,14.00
2023-08-22T10:23:16.645Z,13.57
2023-08-22T10:24:31.051Z,13.95
2023-08-22T10:25:47.159Z,13.78
2023-08-22T10:27:17.758Z,13.45
2023-08-22T10:28:20.561Z,12.90
2023-08-22T10:29:23.293Z,14.25
2023-08-22T10:30:26.129Z,13.47
2023-08-22T10:31:29.324Z,12.98
2023-08-22T10:32:32.168Z,13.03
2023-08-22T10:33:36.012Z,13.10
2023-08-22T10:34:38.911Z,14.17
2023-08-22T10:35:41.711Z,13.47
2023-08-22T10:37:01.008Z,12.68
2023-08-22T10:38:05.162Z,12.38
2023-08-22T10:39:09.156Z,13.27
2023-08-22T10:40:24.783Z,13.20
2023-08-22T10:41:55.631Z,12.82
2023-08-22T10:43:11.395Z,13.70
2023-08-22T10:44:30.505Z,12.42
2023-08-22T10:45:54.320Z,13.57
2023-08-22T10:47:08.387Z,12.88
2023-08-22T10:48:16.384Z,13.10
2023-08-22T10:49:22.071Z,13.22
2023-08-22T10:50:33.461Z,13.05
2023-08-22T10:52:00.140Z,12.42
2023-08-22T10:53:13.071Z,13.20
2023-08-22T10:54:19.695Z,13.42
2023-08-22T10:55:22.514Z,12.48
2023-08-22T10:56:25.371Z,12.13
2023-08-22T10:57:30.983Z,12.02
2023-08-22T10:58:38.775Z,12.78
2023-08-22T11:00:00.003Z,12.22
2023-08-22T11:01:07.461Z,11.80
2023-08-22T11:02:14.283Z,12.43
2023-08-22T11:03:17.213Z,11.75
2023-08-22T11:04:21.103Z,11.53
2023-08-22T11:05:24.277Z,12.08
2023-08-22T11:06:27.028Z,11.18
2023-08-22T11:07:30.952Z,11.88
2023-08-22T11:08:34.325Z,13.13
2023-08-22T11:09:37.196Z,13.22
2023-08-22T11:10:40.585Z,13.27
2023-08-22T11:11:43.460Z,14.00
2023-08-22T11:12:47.252Z,14.05
2023-08-22T11:13:50.454Z,13.77
2023-08-22T11:14:54.333Z,14.23
2023-08-22T11:15:57.031Z,13.50
2023-08-22T11:17:03.826Z,13.63
2023-08-22T11:18:06.961Z,14.60
2023-08-22T11:19:09.703Z,14.47
2023-08-22T11:20:16.407Z,13.75
2023-08-22T11:21:19.168Z,14.43
2023-08-22T11:22:22.775Z,14.92
2023-08-22T11:23:25.548Z,14.23
2023-08-22T11:24:28.872Z,14.25
2023-08-22T11:25:31.615Z,14.60
2023-08-22T11:26:34.336Z,13.67
2023-08-22T11:27:41.753Z,13.93
2023-08-22T11:28:45.214Z,14.00
2023-08-22T11:29:53.037Z,14.83
2023-08-22T11:30:55.824Z,13.08
2023-08-22T11:31:58.541Z,36.10
2023-08-22T11:33:01.352Z,22.58
2023-08-22T11:34:04.863Z,14.00
2023-08-22T11:35:09.187Z,14.65
2023-08-22T11:36:11.914Z,14.18
2023-08-22T11:37:15.306Z,13.42
2023-08-22T11:38:19.660Z,13.45
2023-08-22T11:39:22.474Z,13.65
2023-08-22T11:40:27.204Z,12.83
2023-08-22T11:41:30.025Z,13.35
2023-08-22T11:42:34.817Z,13.85
2023-08-22T11:43:47.779Z,13.82
2023-08-22T11:45:06.463Z,14.75
2023-08-22T11:46:12.017Z,14.93
2023-08-22T11:47:14.763Z,14.83
2023-08-22T11:48:24.215Z,14.72
2023-08-22T11:49:26.971Z,15.57
2023-08-22T11:50:30.635Z,15.53
2023-08-22T11:51:33.390Z,14.33
2023-08-22T11:52:36.171Z,14.52
2023-08-22T11:53:39.692Z,14.15
2023-08-22T11:54:46.235Z,14.32
2023-08-22T11:55:56.388Z,13.97
2023-08-22T11:57:02.208Z,14.07
2023-08-22T11:58:05.761Z,14.17
2023-08-22T11:59:10.353Z,13.80
2023-08-22T12:00:15.150Z,14.45
2023-08-22T12:01:19.077Z,14.32
2023-08-22T12:02:22.569Z,13.58
2023-08-22T12:03:27.984Z,14.02
2023-08-22T12:04:44.201Z,13.08
2023-08-22T12:05:49.542Z,13.77
2023-08-22T12:07:01.403Z,14.02
2023-08-22T12:08:07.181Z,13.35
2023-08-22T12:09:13.398Z,14.98
2023-08-22T12:10:16.575Z,15.02
2023-08-22T12:11:26.770Z,14.53
2023-08-22T12:12:31.190Z,14.73
2023-08-22T12:13:34.071Z,13.93
2023-08-22T12:14:36.771Z,14.62
2023-08-22T12:15:40.652Z,14.30
2023-08-22T12:16:43.465Z,14.22
2023-08-22T12:17:46.508Z,13.17
2023-08-22T12:18:49.461Z,13.08
2023-08-22T12:19:52.163Z,12.40
2023-08-22T12:20:54.883Z,11.38
2023-08-22T12:21:58.471Z,12.00
2023-08-22T12:23:02.742Z,12.12
2023-08-22T12:24:06.611Z,11.88
2023-08-22T12:25:09.399Z,12.22
2023-08-22T12:26:12.175Z,11.42
2023-08-22T12:27:15.155Z,11.33
2023-08-22T12:28:17.939Z,11.28
2023-08-22T12:29:20.658Z,11.60
2023-08-22T12:30:23.547Z,11.73
2023-08-22T12:31:29.492Z,10.98
2023-08-22T12:32:35.239Z,10.92
2023-08-22T12:33:38.123Z,11.08
2023-08-22T12:34:40.852Z,10.95
2023-08-22T12:35:44.288Z,11.30
2023-08-22T12:36:47.108Z,10.12
2023-08-22T12:37:49.838Z,10.43
2023-08-22T12:38:52.615Z,10.10
2023-08-22T12:39:55.360Z,10.32
2023-08-22T12:40:59.705Z,10.45
2023-08-22T12:42:02.457Z,10.82
2023-08-22T12:43:05.397Z,10.28
2023-08-22T12:44:08.115Z,10.40
2023-08-22T12:45:11.372Z,10.35
2023-08-22T12:46:14.217Z,9.52
2023-08-22T12:47:16.944Z,9.62
2023-08-22T12:48:19.698Z,10.77
2023-08-22T12:49:22.452Z,10.38
2023-08-22T12:50:28.217Z,9.55
2023-08-22T12:51:30.927Z,9.97
2023-08-22T12:52:33.889Z,9.95
2023-08-22T12:53:36.600Z,10.20
2023-08-22T12:54:39.344Z,11.27
2023-08-22T12:55:43.436Z,9.98
2023-08-22T12:56:46.186Z,10.28
2023-08-22T12:57:49.259Z,10.13
2023-08-22T12:58:52.286Z,9.67
2023-08-22T12:59:57.381Z,9.88
2023-08-22T13:01:01.166Z,9.83
2023-08-22T13:02:03.972Z,10.87
2023-08-22T13:03:08.689Z,10.13
2023-08-22T13:04:16.321Z,10.25
2023-08-22T13:05:19.200Z,9.95
2023-08-22T13:06:22.526Z,9.97
2023-08-22T13:07:25.409Z,10.00
2023-08-22T13:08:28.153Z,9.90
2023-08-22T13:09:31.670Z,10.08
2023-08-22T13:10:35.787Z,9.97
2023-08-22T13:11:43.769Z,10.22
2023-08-22T13:12:47.532Z,9.85
2023-08-22T13:13:50.525Z,9.33
2023-08-22T13:14:53.227Z,10.00
2023-08-22T13:15:57.291Z,10.03
2023-08-22T13:17:04.906Z,9.55
2023-08-22T13:18:07.880Z,9.15
2023-08-22T13:19:11.050Z,9.45
2023-08-22T13:20:14.443Z,8.90
2023-08-22T13:21:17.204Z,9.17
2023-08-22T13:22:20.000Z,9.57
2023-08-22T13:23:22.733Z,9.18
2023-08-22T13:24:25.618Z,9.30
2023-08-22T13:25:28.341Z,9.83
2023-08-22T13:26:31.740Z,9.57
2023-08-22T13:27:36.842Z,9.22
2023-08-22T13:28:39.643Z,9.37
2023-08-22T13:29:42.577Z,9.18
2023-08-22T13:30:45.336Z,8.92
2023-08-22T13:31:48.929Z,9.10
2023-08-22T13:32:51.812Z,8.83
2023-08-22T13:33:54.628Z,9.18
2023-08-22T13:34:57.361Z,9.73
2023-08-22T13:36:00.069Z,9.38
2023-08-22T13:37:02.829Z,9.45
2023-08-22T13:38:05.561Z,9.30
2023-08-22T13:39:08.382Z,9.05
2023-08-22T13:40:11.553Z,9.07
2023-08-22T13:41:14.488Z,9.17
2023-08-22T13:42:17.283Z,8.97
2023-08-22T13:43:19.999Z,9.07
2023-08-22T13:44:22.702Z,9.48
